createdAt,value
2018-09-04T00:01:11.871Z,14.0
2018-09-04T00:02:11.808Z,14.0
2018-09-04T00:03:12.064Z,14.0
2018-09-04T00:04:13.021Z,14.0
2018-09-04T00:05:13.170Z,14.0
2018-09-04T00:06:12.095Z,14.0
2018-09-04T00:07:13.938Z,14.0
2018-09-04T00:09:12.407Z,14.0
2018-09-04T00:10:13.349Z,14.0
2018-09-04T00:13:11.803Z,14.0
2018-09-04T00:14:12.555Z,14.0
2018-09-04T00:15:13.036Z,14.0
2018-09-04T00:17:13.124Z,14.1
2018-09-04T00:19:11.889Z,14.1
2018-09-04T00:20:23.237Z,14.1
2018-09-04T00:21:15.201Z,14.1
2018-09-04T00:22:15.672Z,14.1
2018-09-04T00:23:11.774Z,14.1
2018-09-04T00:24:11.918Z,14.1
2018-09-04T00:26:31.939Z,14.2
2018-09-04T00:27:22.751Z,14.2
2018-09-04T00:28:17.849Z,14.2
2018-09-04T00:29:13.386Z,14.1
2018-09-04T00:30:11.808Z,14.1
2018-09-04T00:31:21.875Z,14.1
2018-09-04T00:32:11.744Z,14.1
2018-09-04T00:33:11.796Z,14.1
2018-09-04T00:35:11.715Z,14.1
2018-09-04T00:36:12.113Z,14.1
2018-09-04T00:37:11.975Z,14.1
2018-09-04T00:38:11.746Z,14.1
2018-09-04T00:39:11.668Z,14.1
2018-09-04T00:41:11.775Z,14.1
2018-09-04T00:42:11.823Z,14.1
2018-09-04T00:43:18.768Z,14.1
2018-09-04T00:44:28.633Z,14.1
2018-09-04T00:45:35.891Z,14.1
2018-09-04T00:46:30.657Z,14.2
2018-09-04T00:47:18.370Z,14.2
2018-09-04T00:48:16.850Z,14.2
2018-09-04T00:49:11.833Z,14.2
2018-09-04T01:00:55.002Z,14.2
2018-09-04T01:01:19.720Z,14.2
2018-09-04T01:02:23.895Z,14.2
2018-09-04T01:04:18.648Z,14.2
2018-09-04T01:05:48.114Z,14.2
2018-09-04T01:09:02.066Z,14.2
2018-09-04T01:10:47.809Z,14.0
2018-09-04T01:11:17.011Z,14.0
2018-09-04T01:12:22.792Z,14.0
2018-09-04T01:13:18.859Z,14.0
2018-09-04T01:14:28.327Z,14.0
2018-09-04T01:19:41.003Z,13.9
2018-09-04T01:21:40.376Z,13.8
2018-09-04T01:23:42.199Z,13.8
2018-09-04T01:25:57.365Z,13.8
2018-09-04T01:26:31.248Z,13.8
2018-09-04T01:27:14.294Z,13.8
2018-09-04T01:29:24.109Z,13.8
2018-09-04T01:32:00.195Z,13.8
2018-09-04T01:32:50.602Z,13.8
2018-09-04T01:34:43.430Z,13.9
2018-09-04T01:35:50.316Z,13.9
2018-09-04T01:36:40.163Z,13.9
2018-09-04T01:37:49.590Z,13.9
2018-09-04T01:38:59.261Z,13.9
2018-09-04T01:40:52.942Z,13.9
2018-09-04T01:41:52.180Z,13.9
2018-09-04T01:42:51.743Z,13.9
2018-09-04T01:43:52.682Z,13.9
2018-09-04T01:44:51.705Z,13.8
2018-09-04T01:45:51.647Z,13.8
2018-09-04T01:46:52.514Z,13.8
2018-09-04T01:48:51.824Z,13.8
2018-09-04T01:49:51.691Z,13.9
2018-09-04T01:50:51.749Z,13.9
2018-09-04T01:51:51.681Z,13.9
2018-09-04T01:52:51.993Z,13.8
2018-09-04T01:53:52.050Z,13.8
2018-09-04T01:54:52.436Z,13.8
2018-09-04T01:55:51.747Z,13.8
2018-09-04T01:56:51.731Z,13.8
2018-09-04T01:57:51.705Z,13.8
2018-09-04T02:13:25.483Z,13.7
2018-09-04T02:14:25.347Z,13.7
2018-09-04T02:15:25.650Z,13.7
2018-09-04T02:16:25.700Z,13.7
2018-09-04T02:17:25.417Z,13.7
2018-09-04T02:18:25.506Z,13.7
2018-09-04T02:19:25.382Z,13.7
2018-09-04T02:20:25.948Z,13.7
2018-09-04T02:21:25.461Z,13.7
2018-09-04T02:22:25.513Z,13.7
2018-09-04T02:23:53.779Z,13.7
2018-09-04T02:25:01.177Z,13.7
2018-09-04T02:25:59.105Z,13.7
2018-09-04T02:26:46.447Z,13.7
2018-09-04T02:27:53.383Z,13.7
2018-09-04T02:28:55.112Z,13.6
2018-09-04T02:29:53.121Z,13.6
2018-09-04T02:30:45.660Z,13.6
2018-09-04T02:32:04.836Z,13.6
2018-09-04T02:32:53.332Z,13.6
2018-09-04T02:35:57.658Z,13.6
2018-09-04T02:36:54.020Z,13.6
2018-09-04T02:38:07.383Z,13.6
2018-09-04T02:38:44.291Z,13.6
2018-09-04T02:41:50.579Z,13.6
2018-09-04T02:43:31.089Z,13.6
2018-09-04T02:44:22.557Z,13.6
2018-09-04T02:45:44.118Z,13.6
2018-09-04T02:47:02.931Z,13.6
2018-09-04T02:48:07.087Z,13.6
2018-09-04T02:49:07.129Z,13.6
2018-09-04T02:50:16.483Z,13.6
2018-09-04T02:51:02.832Z,13.6
2018-09-04T02:53:28.590Z,13.6
2018-09-04T02:54:16.713Z,13.6
2018-09-04T02:55:12.279Z,13.6
2018-09-04T02:57:03.497Z,13.7
2018-09-04T02:59:20.122Z,13.7
2018-09-04T03:00:22.634Z,13.7
2018-09-04T03:01:31.462Z,13.7
2018-09-04T03:02:05.356Z,13.7
2018-09-04T03:07:15.856Z,13.7
2018-09-04T03:08:26.408Z,13.7
2018-09-04T03:09:51.987Z,13.7
2018-09-04T03:10:41.569Z,13.7
2018-09-04T03:11:19.750Z,13.7
2018-09-04T03:12:49.296Z,13.7
2018-09-04T03:13:28.996Z,13.7
2018-09-04T03:15:10.597Z,13.7
2018-09-04T03:18:30.960Z,13.7
2018-09-04T03:19:05.444Z,13.6
2018-09-04T03:21:08.309Z,13.6
2018-09-04T03:22:52.568Z,13.5
2018-09-04T03:24:06.753Z,13.5
2018-09-04T03:25:08.988Z,13.5
2018-09-04T03:26:09.327Z,13.5
2018-09-04T03:27:29.839Z,13.5
2018-09-04T03:38:45.947Z,13.4
2018-09-04T03:39:46.100Z,13.4
2018-09-04T03:40:44.931Z,13.4
2018-09-04T03:42:45.553Z,13.4
2018-09-04T03:43:46.603Z,13.4
2018-09-04T03:44:46.318Z,13.4
2018-09-04T03:45:44.208Z,13.4
2018-09-04T03:46:44.627Z,13.4
2018-09-04T03:47:44.652Z,13.4
2018-09-04T03:59:44.484Z,13.3
2018-09-04T04:00:46.180Z,13.3
2018-09-04T04:01:46.070Z,13.3
2018-09-04T04:02:43.902Z,13.3
2018-09-04T04:03:44.124Z,13.3
2018-09-04T04:04:44.948Z,13.3
2018-09-04T04:05:45.317Z,13.3
2018-09-04T04:06:48.328Z,13.3
2018-09-04T04:07:44.675Z,13.3
2018-09-04T04:08:44.470Z,13.3
2018-09-04T04:11:25.407Z,13.3
2018-09-04T04:11:52.154Z,13.3
2018-09-04T04:12:52.860Z,13.4
2018-09-04T04:13:52.896Z,13.4
2018-09-04T04:14:52.870Z,13.4
2018-09-04T04:15:52.878Z,13.4
2018-09-04T04:16:52.848Z,13.4
2018-09-04T04:17:55.229Z,13.3
2018-09-04T04:18:53.126Z,13.3
2018-09-04T04:19:52.929Z,13.4
2018-09-04T04:22:05.755Z,13.4
2018-09-04T04:23:05.456Z,13.4
2018-09-04T04:24:05.470Z,13.4
2018-09-04T04:25:05.523Z,13.4
2018-09-04T04:26:05.714Z,13.4
2018-09-04T04:27:05.548Z,13.4
2018-09-04T04:28:05.520Z,13.4
2018-09-04T04:29:05.709Z,13.4
2018-09-04T04:30:05.533Z,13.4
2018-09-04T04:31:05.534Z,13.4
2018-09-04T04:32:07.617Z,13.4
2018-09-04T04:33:05.691Z,13.4
2018-09-04T04:34:05.615Z,13.4
2018-09-04T04:35:05.529Z,13.5
2018-09-04T04:36:06.440Z,13.5
2018-09-04T04:37:05.469Z,13.5
2018-09-04T04:38:10.409Z,13.5
2018-09-04T04:41:12.911Z,13.5
2018-09-04T04:42:11.998Z,13.5
2018-09-04T04:43:11.129Z,13.5
2018-09-04T04:44:18.927Z,13.5
2018-09-04T04:45:06.333Z,13.5
2018-09-04T04:46:06.291Z,13.5
2018-09-04T04:47:11.159Z,13.5
2018-09-04T04:48:07.424Z,13.5
2018-09-04T04:49:08.330Z,13.5
2018-09-04T04:50:13.989Z,13.5
2018-09-04T04:51:05.650Z,13.5
2018-09-04T04:52:06.845Z,13.5
2018-09-04T04:54:21.312Z,13.5
2018-09-04T04:56:13.029Z,13.5
2018-09-04T04:57:08.557Z,13.5
2018-09-04T04:58:06.391Z,13.6
2018-09-04T05:00:10.496Z,13.6
2018-09-04T05:01:06.221Z,13.5
2018-09-04T05:02:11.435Z,13.5
2018-09-04T05:03:05.926Z,13.6
2018-09-04T05:04:05.942Z,13.6
2018-09-04T05:05:05.693Z,13.6
2018-09-04T05:06:05.878Z,13.5
2018-09-04T05:07:05.924Z,13.5
2018-09-04T05:09:05.890Z,13.6
2018-09-04T05:21:13.167Z,13.5
2018-09-04T05:22:12.318Z,13.5
2018-09-04T05:23:13.280Z,13.5
2018-09-04T05:24:12.399Z,13.5
2018-09-04T05:25:14.877Z,13.5
2018-09-04T05:26:17.449Z,13.5
2018-09-04T05:27:12.667Z,13.5
2018-09-04T05:28:11.988Z,13.5
2018-09-04T05:29:12.945Z,13.6
2018-09-04T05:30:11.981Z,13.6
2018-09-04T05:32:04.780Z,13.6
2018-09-04T05:32:13.098Z,13.6
2018-09-04T05:33:13.806Z,13.6
2018-09-04T05:34:13.162Z,13.6
2018-09-04T05:36:13.198Z,13.7
2018-09-04T05:37:13.557Z,13.7
2018-09-04T05:38:13.236Z,13.7
2018-09-04T05:39:13.507Z,13.7
2018-09-04T05:40:13.282Z,13.7
2018-09-04T05:42:23.434Z,13.6
2018-09-04T05:43:38.541Z,13.7
2018-09-04T05:44:37.909Z,13.7
2018-09-04T05:45:37.952Z,13.7
2018-09-04T05:46:37.945Z,13.7
2018-09-04T05:47:37.942Z,13.7
2018-09-04T05:48:37.922Z,13.7
2018-09-04T05:49:38.187Z,13.7
2018-09-04T05:50:38.484Z,13.7
2018-09-04T05:51:37.913Z,13.7
2018-09-04T05:52:39.373Z,13.7
2018-09-04T05:53:37.900Z,13.7
2018-09-04T05:54:38.207Z,13.8
2018-09-04T05:55:39.079Z,13.8
2018-09-04T05:56:38.578Z,13.8
2018-09-04T05:57:38.313Z,13.8
2018-09-04T05:58:37.950Z,13.8
2018-09-04T05:59:37.988Z,13.8
2018-09-04T06:00:37.938Z,13.8
2018-09-04T06:01:39.601Z,13.8
2018-09-04T06:09:10.846Z,13.8
2018-09-04T06:09:24.547Z,13.8
2018-09-04T06:10:25.600Z,13.9
2018-09-04T06:11:25.855Z,13.9
2018-09-04T06:12:25.572Z,14.0
2018-09-04T06:13:25.622Z,14.0
2018-09-04T06:14:25.615Z,14.0
2018-09-04T06:15:25.602Z,14.0
2018-09-04T06:16:25.604Z,14.0
2018-09-04T06:17:26.166Z,14.0
2018-09-04T06:18:25.599Z,14.0
2018-09-04T06:19:25.566Z,14.0
2018-09-04T06:20:25.604Z,14.0
2018-09-04T06:21:25.719Z,14.0
2018-09-04T06:22:25.959Z,14.0
2018-09-04T06:23:26.298Z,14.0
2018-09-04T06:24:25.614Z,14.0
2018-09-04T06:25:25.593Z,14.0
2018-09-04T06:26:25.629Z,14.0
2018-09-04T06:29:34.872Z,14.0
2018-09-04T06:30:36.070Z,14.1
2018-09-04T06:31:35.840Z,14.1
2018-09-04T06:32:36.564Z,14.2
2018-09-04T06:33:35.863Z,14.2
2018-09-04T06:34:35.848Z,14.1
2018-09-04T06:35:35.820Z,14.1
2018-09-04T06:36:35.922Z,14.1
2018-09-04T06:37:36.157Z,14.2
2018-09-04T06:38:35.871Z,14.2
2018-09-04T06:39:37.974Z,14.2
2018-09-04T06:40:35.799Z,14.2
2018-09-04T06:41:35.842Z,14.2
2018-09-04T06:42:35.803Z,14.3
2018-09-04T06:43:35.868Z,14.3
2018-09-04T06:44:35.848Z,14.4
2018-09-04T06:45:35.854Z,14.4
2018-09-04T06:46:35.873Z,14.4
2018-09-04T06:47:35.825Z,14.4
2018-09-04T06:48:35.895Z,14.4
2018-09-04T06:50:04.282Z,14.5
2018-09-04T06:50:36.097Z,14.5
2018-09-04T06:51:36.588Z,14.5
2018-09-04T06:52:35.813Z,14.5
2018-09-04T06:53:35.879Z,14.5
2018-09-04T06:54:36.193Z,14.5
2018-09-04T06:55:35.843Z,14.6
2018-09-04T06:56:36.204Z,14.6
2018-09-04T06:57:36.158Z,14.6
2018-09-04T06:58:35.855Z,14.6
2018-09-04T06:59:36.131Z,14.6
2018-09-04T07:01:48.425Z,14.7
2018-09-04T07:02:48.353Z,14.7
2018-09-04T07:04:48.386Z,14.7
2018-09-04T07:05:48.376Z,14.8
2018-09-04T07:06:48.374Z,14.8
2018-09-04T07:07:49.451Z,14.8
2018-09-04T07:08:48.416Z,14.8
2018-09-04T07:09:48.367Z,14.8
2018-09-04T07:10:48.375Z,14.8
2018-09-04T07:11:51.373Z,14.8
2018-09-04T07:12:48.436Z,14.8
2018-09-04T07:13:48.424Z,14.8
2018-09-04T07:14:48.636Z,14.8
2018-09-04T07:15:48.619Z,14.9
2018-09-04T07:16:48.958Z,14.9
2018-09-04T07:17:48.437Z,14.9
2018-09-04T07:18:48.418Z,14.9
2018-09-04T07:19:48.423Z,14.9
2018-09-04T07:20:49.092Z,14.9
2018-09-04T07:21:58.807Z,14.9
2018-09-04T07:22:49.224Z,14.9
2018-09-04T07:23:48.430Z,14.9
2018-09-04T07:24:49.151Z,14.9
2018-09-04T07:25:48.408Z,14.8
2018-09-04T07:26:48.717Z,14.8
2018-09-04T07:27:48.485Z,14.8
2018-09-04T07:28:48.425Z,14.8
2018-09-04T07:29:48.407Z,14.8
2018-09-04T07:30:48.504Z,14.9
2018-09-04T07:31:48.529Z,14.9
2018-09-04T07:32:48.710Z,14.9
2018-09-04T07:33:48.452Z,14.9
2018-09-04T07:34:49.580Z,14.9
2018-09-04T07:35:48.783Z,15.0
2018-09-04T07:36:48.445Z,15.0
2018-09-04T07:37:48.735Z,15.0
2018-09-04T07:38:48.534Z,15.0
2018-09-04T07:40:49.132Z,15.1
2018-09-04T07:41:48.480Z,15.1
2018-09-04T07:43:48.470Z,15.1
2018-09-04T07:44:48.463Z,15.1
2018-09-04T07:45:48.713Z,15.2
2018-09-04T07:47:48.493Z,15.2
2018-09-04T07:48:48.752Z,15.2
2018-09-04T07:49:48.477Z,15.2
2018-09-04T08:01:48.021Z,15.5
2018-09-04T08:02:48.362Z,15.5
2018-09-04T08:03:48.074Z,15.6
2018-09-04T08:04:48.296Z,15.6
2018-09-04T08:05:48.065Z,15.6
2018-09-04T08:06:48.132Z,15.5
2018-09-04T08:07:48.613Z,15.5
2018-09-04T08:08:48.802Z,15.5
2018-09-04T08:09:48.116Z,15.5
2018-09-04T08:10:48.062Z,15.5
2018-09-04T08:21:34.524Z,15.6
2018-09-04T08:22:34.831Z,16.3
2018-09-04T08:23:34.552Z,16.3
2018-09-04T08:24:34.497Z,16.1
2018-09-04T08:25:34.506Z,16.1
2018-09-04T08:26:34.806Z,16.3
2018-09-04T08:27:34.527Z,16.3
2018-09-04T08:28:34.501Z,16.3
2018-09-04T08:29:34.569Z,16.6
2018-09-04T08:30:34.508Z,16.6
2018-09-04T08:32:47.145Z,16.8
2018-09-04T08:33:47.114Z,16.8
2018-09-04T08:34:47.163Z,16.7
2018-09-04T08:35:47.121Z,16.7
2018-09-04T08:36:47.116Z,17.0
2018-09-04T08:37:47.164Z,17.0
2018-09-04T08:38:47.373Z,17.0
2018-09-04T08:39:47.098Z,16.9
2018-09-04T08:40:47.129Z,16.9
2018-09-04T08:41:47.359Z,16.8
2018-09-04T08:42:57.499Z,16.8
2018-09-04T08:43:47.063Z,16.8
2018-09-04T08:44:47.113Z,16.8
2018-09-04T08:45:47.355Z,16.8
2018-09-04T08:46:47.357Z,16.9
2018-09-04T08:47:47.211Z,16.9
2018-09-04T08:48:47.083Z,16.9
2018-09-04T08:49:47.342Z,16.9
2018-09-04T08:50:47.182Z,16.9
2018-09-04T08:51:47.387Z,17.2
2018-09-04T08:52:47.127Z,17.2
2018-09-04T08:53:47.318Z,17.2
2018-09-04T08:54:47.045Z,17.4
2018-09-04T08:55:47.435Z,17.4
2018-09-04T08:56:47.352Z,17.6
2018-09-04T08:57:47.340Z,17.6
2018-09-04T08:58:47.747Z,17.6
2018-09-04T08:59:47.085Z,17.6
2018-09-04T09:00:47.149Z,17.6
2018-09-04T09:11:39.437Z,17.6
2018-09-04T09:12:39.844Z,17.8
2018-09-04T09:13:39.845Z,17.8
2018-09-04T09:14:40.069Z,17.9
2018-09-04T09:15:40.060Z,17.9
2018-09-04T09:16:39.967Z,17.9
2018-09-04T09:17:40.098Z,18.3
2018-09-04T09:18:39.848Z,18.3
2018-09-04T09:19:39.837Z,18.4
2018-09-04T09:20:40.567Z,18.4
2018-09-04T09:21:40.980Z,18.4
2018-09-04T09:22:39.862Z,18.2
2018-09-04T09:23:39.897Z,18.2
2018-09-04T09:24:39.831Z,18.2
2018-09-04T09:25:39.797Z,18.2
2018-09-04T09:26:39.867Z,18.2
2018-09-04T09:27:39.869Z,18.5
2018-09-04T09:28:40.827Z,18.5
2018-09-04T09:29:40.137Z,18.5
2018-09-04T09:30:39.884Z,18.5
2018-09-04T09:41:31.560Z,18.5
2018-09-04T09:42:31.482Z,19.1
2018-09-04T09:43:32.246Z,19.1
2018-09-04T09:44:31.488Z,19.1
2018-09-04T09:45:31.480Z,19.2
2018-09-04T09:46:31.768Z,19.2
2018-09-04T09:47:31.503Z,19.3
2018-09-04T09:48:31.491Z,19.3
2018-09-04T09:49:31.526Z,19.3
2018-09-04T09:50:31.497Z,19.4
2018-09-04T09:51:31.508Z,19.4
2018-09-04T09:52:31.567Z,19.4
2018-09-04T09:53:31.541Z,19.5
2018-09-04T09:54:31.795Z,19.5
2018-09-04T09:55:31.515Z,19.7
2018-09-04T09:56:31.640Z,19.7
2018-09-04T09:57:31.598Z,19.7
2018-09-04T09:58:31.731Z,19.5
2018-09-04T09:59:32.125Z,19.5
2018-09-04T10:00:31.486Z,19.3
2018-09-04T10:01:31.818Z,19.3
2018-09-04T10:02:31.497Z,19.3
2018-09-04T10:03:31.481Z,19.2
2018-09-04T10:04:31.550Z,19.2
2018-09-04T10:05:32.397Z,19.0
2018-09-04T10:06:31.789Z,19.0
2018-09-04T10:07:41.871Z,19.0
2018-09-04T10:08:31.776Z,19.0
2018-09-04T10:09:31.502Z,19.0
2018-09-04T10:10:31.597Z,19.0
2018-09-04T10:11:31.562Z,19.0
2018-09-04T10:12:31.504Z,19.0
2018-09-04T10:13:31.541Z,19.0
2018-09-04T10:14:31.604Z,19.0
2018-09-04T10:15:31.500Z,19.2
2018-09-04T10:16:31.547Z,19.2
2018-09-04T10:17:31.526Z,19.2
2018-09-04T10:18:31.529Z,19.3
2018-09-04T10:19:31.616Z,19.3
2018-09-04T10:20:31.777Z,19.3
2018-09-04T10:21:31.512Z,19.9
2018-09-04T10:22:31.548Z,19.9
2018-09-04T10:23:31.545Z,20.1
2018-09-04T10:24:31.911Z,20.1
2018-09-04T10:25:31.778Z,20.1
2018-09-04T10:26:31.639Z,20.0
2018-09-04T10:27:31.784Z,20.0
2018-09-04T10:28:31.565Z,19.7
2018-09-04T10:29:31.544Z,19.7
2018-09-04T10:30:31.552Z,19.7
2018-09-04T10:31:31.532Z,19.7
2018-09-04T10:32:31.497Z,19.7
2018-09-04T10:33:31.538Z,19.8
2018-09-04T10:34:31.560Z,19.8
2018-09-04T10:35:31.537Z,19.8
2018-09-04T10:36:31.862Z,19.8
2018-09-04T10:37:31.644Z,19.8
2018-09-04T10:38:31.823Z,19.8
2018-09-04T10:39:31.841Z,19.8
2018-09-04T10:40:31.632Z,19.8
2018-09-04T10:41:31.659Z,19.7
2018-09-04T10:42:31.601Z,19.7
2018-09-04T10:43:31.581Z,19.7
2018-09-04T10:44:31.607Z,19.7
2018-09-04T10:45:31.546Z,19.7
2018-09-04T10:46:31.808Z,19.9
2018-09-04T10:47:31.858Z,19.9
2018-09-04T10:48:31.551Z,20.0
2018-09-04T10:49:31.628Z,20.0
2018-09-04T10:50:31.606Z,20.0
2018-09-04T10:51:32.923Z,20.0
2018-09-04T10:52:31.860Z,20.0
2018-09-04T10:53:31.609Z,20.0
2018-09-04T10:54:31.912Z,21.1
2018-09-04T10:55:31.615Z,21.1
2018-09-04T10:56:31.572Z,21.4
2018-09-04T10:58:31.598Z,21.4
2018-09-04T10:59:31.867Z,20.7
2018-09-04T11:00:32.580Z,20.7
2018-09-04T11:01:31.696Z,20.7
2018-09-04T11:02:32.267Z,20.7
2018-09-04T11:03:31.608Z,20.7
2018-09-04T11:04:31.581Z,20.8
2018-09-04T11:05:31.662Z,20.8
2018-09-04T11:06:31.624Z,20.4
2018-09-04T11:07:31.651Z,20.4
2018-09-04T11:08:31.572Z,20.4
2018-09-04T11:09:31.899Z,20.7
2018-09-04T11:10:31.759Z,20.7
2018-09-04T11:11:31.933Z,20.6
2018-09-04T11:22:21.101Z,20.6
2018-09-04T11:23:20.024Z,20.7
2018-09-04T11:24:19.962Z,20.7
2018-09-04T11:25:20.016Z,20.7
2018-09-04T11:26:19.976Z,20.7
2018-09-04T11:27:20.561Z,21.0
2018-09-04T11:28:20.012Z,21.0
2018-09-04T11:29:20.001Z,21.7
2018-09-04T11:30:20.002Z,21.7
2018-09-04T11:31:20.045Z,21.7
2018-09-04T11:32:30.116Z,21.7
2018-09-04T11:33:19.991Z,21.7
2018-09-04T11:34:20.027Z,21.4
2018-09-04T11:35:20.064Z,21.4
2018-09-04T11:36:19.992Z,21.4
2018-09-04T11:37:20.019Z,21.5
2018-09-04T11:39:20.022Z,21.5
2018-09-04T11:40:20.316Z,21.4
2018-09-04T11:41:20.020Z,21.4
2018-09-04T11:42:20.045Z,21.1
2018-09-04T11:43:20.005Z,21.1
2018-09-04T11:44:20.012Z,21.1
2018-09-04T11:45:20.332Z,21.4
2018-09-04T11:46:20.024Z,21.4
2018-09-04T11:47:20.007Z,21.5
2018-09-04T11:48:20.029Z,21.5
2018-09-04T11:49:20.007Z,21.5
2018-09-04T11:50:20.023Z,21.4
2018-09-04T11:51:19.991Z,21.4
2018-09-04T11:52:20.048Z,21.5
2018-09-04T11:53:20.302Z,21.5
2018-09-04T11:54:20.053Z,21.5
2018-09-04T11:55:20.356Z,21.6
2018-09-04T11:56:20.631Z,21.6
2018-09-04T11:57:20.321Z,21.9
2018-09-04T11:58:20.092Z,21.9
2018-09-04T11:59:20.383Z,21.9
2018-09-04T12:00:20.054Z,22.2
2018-09-04T12:11:13.116Z,22.2
2018-09-04T12:12:12.983Z,23.0
2018-09-04T12:13:13.379Z,23.0
2018-09-04T12:14:13.533Z,23.0
2018-09-04T12:15:12.908Z,21.9
2018-09-04T12:16:12.957Z,21.9
2018-09-04T12:17:12.956Z,21.9
2018-09-04T12:18:12.929Z,21.8
2018-09-04T12:19:13.074Z,21.8
2018-09-04T12:20:12.957Z,21.6
2018-09-04T12:22:25.816Z,21.6
2018-09-04T12:23:25.802Z,21.2
2018-09-04T12:24:25.829Z,21.2
2018-09-04T12:25:25.836Z,21.3
2018-09-04T12:26:25.832Z,21.3
2018-09-04T12:27:25.831Z,21.3
2018-09-04T12:28:25.852Z,21.7
2018-09-04T12:29:25.846Z,21.7
2018-09-04T12:30:25.785Z,21.8
2018-09-04T12:31:25.856Z,21.8
2018-09-04T12:33:18.297Z,21.8
2018-09-04T12:33:26.897Z,21.8
2018-09-04T12:34:26.632Z,22.7
2018-09-04T12:35:27.416Z,23.2
2018-09-04T12:36:27.215Z,23.2
2018-09-04T12:37:26.690Z,23.2
2018-09-04T12:38:26.628Z,23.5
2018-09-04T12:39:26.678Z,23.5
2018-09-04T12:40:26.869Z,23.9
2018-09-04T12:41:26.920Z,23.9
2018-09-04T12:42:26.697Z,23.9
2018-09-04T12:44:41.243Z,24.2
2018-09-04T12:45:39.763Z,24.5
2018-09-04T12:46:40.772Z,24.5
2018-09-04T12:47:39.806Z,24.5
2018-09-04T12:48:40.015Z,24.4
2018-09-04T12:49:40.120Z,24.4
2018-09-04T12:50:39.808Z,24.0
2018-09-04T12:51:39.856Z,24.0
2018-09-04T12:52:39.789Z,24.0
2018-09-04T12:53:39.798Z,24.0
2018-09-04T13:04:36.215Z,24.0
2018-09-04T13:05:37.521Z,21.9
2018-09-04T13:06:37.264Z,21.9
2018-09-04T13:07:37.273Z,21.9
2018-09-04T13:08:37.472Z,22.0
2018-09-04T13:09:37.195Z,22.0
2018-09-04T13:10:37.536Z,22.0
2018-09-04T13:11:37.362Z,21.8
2018-09-04T13:12:37.261Z,21.8
2018-09-04T13:14:50.560Z,22.0
2018-09-04T13:15:49.953Z,22.0
2018-09-04T13:16:49.966Z,21.8
2018-09-04T13:17:49.962Z,21.8
2018-09-04T13:18:49.901Z,22.0
2018-09-04T13:19:49.855Z,22.0
2018-09-04T13:20:49.878Z,22.0
2018-09-04T13:21:49.944Z,22.0
2018-09-04T13:22:50.547Z,22.0
2018-09-04T13:24:17.815Z,22.2
2018-09-04T13:25:09.374Z,22.2
2018-09-04T13:26:02.423Z,22.2
2018-09-04T13:26:52.819Z,22.3
2018-09-04T13:27:51.890Z,22.3
2018-09-04T13:28:50.767Z,22.4
2018-09-04T13:29:51.461Z,22.4
2018-09-04T13:30:54.009Z,22.4
2018-09-04T13:31:50.553Z,22.6
2018-09-04T13:34:33.970Z,22.6
2018-09-04T13:37:49.968Z,23.4
2018-09-04T13:39:02.553Z,23.4
2018-09-04T13:39:32.362Z,23.4
2018-09-04T13:41:33.806Z,23.3
2018-09-04T13:44:19.315Z,23.2
2018-09-04T13:45:14.431Z,23.2
2018-09-04T13:47:09.532Z,23.4
2018-09-04T13:48:22.986Z,23.4
2018-09-04T13:50:21.558Z,23.4
2018-09-04T13:51:11.770Z,23.4
2018-09-04T13:51:43.347Z,24.1
2018-09-04T13:52:40.139Z,24.1
2018-09-04T13:53:36.028Z,24.1
2018-09-04T13:54:36.181Z,24.6
2018-09-04T13:55:35.915Z,24.6
2018-09-04T13:56:37.717Z,24.9
2018-09-04T13:57:36.280Z,24.9
2018-09-04T13:58:35.881Z,24.9
2018-09-04T13:59:35.884Z,24.6
2018-09-04T14:00:38.814Z,24.6
2018-09-04T14:01:35.879Z,24.6
2018-09-04T14:02:36.316Z,24.4
2018-09-04T14:03:37.910Z,24.4
2018-09-04T14:04:35.904Z,24.6
2018-09-04T14:05:42.051Z,24.6
2018-09-04T14:06:35.812Z,24.6
2018-09-04T14:07:35.941Z,24.7
2018-09-04T14:08:35.897Z,24.7
2018-09-04T14:11:38.843Z,24.4
2018-09-04T14:11:47.467Z,24.4
2018-09-04T14:12:59.084Z,24.8
2018-09-04T14:15:19.829Z,24.8
2018-09-04T14:15:51.919Z,24.8
2018-09-04T14:16:47.946Z,24.8
2018-09-04T14:17:47.771Z,25.0
2018-09-04T14:18:48.396Z,25.0
2018-09-04T14:21:04.280Z,24.8
2018-09-04T14:23:32.685Z,24.3
2018-09-04T14:24:21.711Z,24.3
2018-09-04T14:26:00.635Z,24.3
2018-09-04T14:26:18.158Z,24.3
2018-09-04T14:27:22.352Z,23.7
2018-09-04T14:29:53.153Z,23.7
2018-09-04T14:34:36.818Z,23.7
2018-09-04T14:36:37.175Z,23.7
2018-09-04T14:38:50.433Z,23.7
2018-09-04T14:40:35.162Z,23.7
2018-09-04T14:42:07.610Z,23.7
2018-09-04T14:53:38.776Z,22.8
2018-09-04T14:54:39.742Z,22.8
2018-09-04T14:56:25.275Z,22.8
2018-09-04T14:56:39.082Z,22.8
2018-09-04T14:58:37.252Z,22.8
2018-09-04T14:59:32.346Z,22.8
2018-09-04T15:00:33.670Z,22.9
2018-09-04T15:01:23.111Z,22.9
2018-09-04T15:02:05.266Z,22.9
2018-09-04T15:03:07.742Z,22.8
2018-09-04T15:04:05.939Z,22.8
2018-09-04T15:04:56.929Z,22.8
2018-09-04T15:07:00.777Z,22.8
2018-09-04T15:08:04.339Z,22.8
2018-09-04T15:08:54.736Z,22.8
2018-09-04T15:09:55.029Z,22.8
2018-09-04T15:10:59.128Z,23.1
2018-09-04T15:12:11.506Z,23.1
2018-09-04T15:13:00.134Z,23.1
2018-09-04T15:15:32.553Z,23.4
2018-09-04T15:16:05.892Z,23.4
2018-09-04T15:17:09.681Z,23.4
2018-09-04T15:18:16.775Z,23.4
2018-09-04T15:19:21.638Z,23.6
2018-09-04T15:20:10.853Z,23.6
2018-09-04T15:21:24.168Z,23.7
2018-09-04T15:22:11.870Z,23.7
2018-09-04T15:27:00.164Z,23.5
2018-09-04T15:27:28.909Z,23.5
2018-09-04T15:28:56.732Z,23.5
2018-09-04T15:29:44.274Z,23.5
2018-09-04T15:30:53.021Z,23.5
2018-09-04T15:31:43.757Z,23.3
2018-09-04T15:34:07.892Z,23.3
2018-09-04T15:35:16.154Z,23.3
2018-09-04T15:48:41.109Z,24.0
2018-09-04T15:49:43.817Z,24.0
2018-09-04T15:52:00.325Z,24.0
2018-09-04T15:54:05.369Z,23.9
2018-09-04T15:55:26.943Z,23.9
2018-09-04T15:57:12.249Z,23.9
2018-09-04T15:58:32.418Z,23.9
2018-09-04T16:00:03.072Z,23.9
2018-09-04T16:01:35.503Z,23.9
2018-09-04T16:02:43.544Z,23.9
2018-09-04T16:04:02.588Z,23.9
2018-09-04T16:05:26.623Z,23.9
2018-09-04T16:09:25.054Z,23.9
2018-09-04T16:10:49.135Z,23.9
2018-09-04T16:12:08.669Z,23.9
2018-09-04T16:13:32.168Z,23.9
2018-09-04T16:14:42.692Z,23.9
2018-09-04T16:15:56.870Z,23.9
2018-09-04T16:17:20.356Z,23.9
2018-09-04T16:18:30.492Z,23.9
2018-09-04T16:19:52.994Z,23.9
2018-09-04T16:22:29.617Z,22.7
2018-09-04T16:24:31.387Z,22.6
2018-09-04T16:27:08.560Z,22.6
2018-09-04T16:28:32.179Z,22.6
2018-09-04T16:30:52.978Z,22.2
2018-09-04T16:32:22.557Z,22.2
2018-09-04T16:33:42.695Z,22.2
2018-09-04T16:45:09.395Z,22.2
2018-09-04T16:46:32.069Z,22.2
2018-09-04T16:47:57.385Z,22.2
2018-09-04T16:49:28.215Z,22.2
2018-09-04T16:50:48.869Z,22.2
2018-09-04T16:52:38.914Z,22.2
2018-09-04T16:54:41.389Z,22.2
2018-09-04T16:56:30.315Z,22.2
2018-09-04T16:58:55.840Z,21.2
2018-09-04T17:00:14.102Z,21.2
2018-09-04T17:02:10.130Z,21.2
2018-09-04T17:03:54.463Z,21.2
2018-09-04T17:05:12.159Z,21.2
2018-09-04T17:06:32.526Z,21.2
2018-09-04T17:07:59.686Z,21.2
2018-09-04T17:10:07.954Z,21.2
2018-09-04T17:11:37.295Z,21.2
2018-09-04T17:15:34.366Z,20.6
2018-09-04T17:17:04.225Z,20.6
2018-09-04T17:18:41.672Z,20.6
2018-09-04T17:19:59.530Z,20.6
2018-09-04T17:22:17.754Z,20.6
2018-09-04T17:26:40.829Z,20.6
2018-09-04T17:28:44.134Z,20.6
2018-09-04T17:30:23.571Z,20.6
2018-09-04T17:31:58.881Z,20.6
2018-09-04T17:33:36.866Z,20.6
2018-09-04T17:44:54.760Z,19.4
2018-09-04T17:45:44.885Z,19.2
2018-09-04T17:46:53.632Z,19.2
2018-09-04T17:47:51.652Z,19.2
2018-09-04T17:48:58.412Z,19.0
2018-09-04T17:49:46.577Z,19.0
2018-09-04T17:50:50.438Z,18.9
2018-09-04T17:51:44.184Z,18.9
2018-09-04T17:52:48.893Z,18.9
2018-09-04T18:08:06.336Z,18.8
2018-09-04T18:08:54.975Z,18.8
2018-09-04T18:09:56.548Z,18.6
2018-09-04T18:11:18.113Z,18.6
2018-09-04T18:12:17.979Z,18.6
2018-09-04T18:12:59.464Z,18.4
2018-09-04T18:14:18.906Z,18.2
2018-09-04T18:19:27.319Z,18.0
2018-09-04T18:20:33.561Z,18.0
2018-09-04T18:23:00.625Z,17.7
2018-09-04T18:24:19.482Z,17.7
2018-09-04T18:25:20.950Z,17.7
2018-09-04T18:28:07.710Z,17.4
2018-09-04T18:29:57.236Z,17.4
2018-09-04T18:31:17.640Z,17.4
2018-09-04T18:32:29.602Z,17.4
2018-09-04T18:34:11.947Z,17.4
2018-09-04T18:35:40.923Z,17.4
2018-09-04T18:37:55.509Z,16.9
2018-09-04T18:39:20.934Z,16.9
2018-09-04T18:40:28.622Z,16.9
2018-09-04T18:41:39.329Z,16.9
2018-09-04T18:42:56.692Z,16.9
2018-09-04T18:45:15.840Z,16.7
2018-09-04T18:46:23.040Z,16.7
2018-09-04T18:57:45.239Z,16.7
2018-09-04T18:59:07.001Z,16.7
2018-09-04T19:01:28.118Z,16.5
2018-09-04T19:05:04.556Z,16.3
2018-09-04T19:06:08.653Z,16.3
2018-09-04T19:10:53.910Z,15.9
2018-09-04T19:12:46.802Z,15.9
2018-09-04T19:14:14.494Z,15.9
2018-09-04T19:15:37.298Z,15.9
2018-09-04T19:16:38.999Z,15.9
2018-09-04T19:17:44.536Z,15.9
2018-09-04T19:19:27.857Z,15.9
2018-09-04T19:21:06.352Z,15.9
2018-09-04T19:23:30.552Z,15.8
2018-09-04T19:25:18.672Z,15.8
2018-09-04T19:26:22.864Z,15.8